createdAt,value
2019-01-12T00:01:23.093Z,13.17
2019-01-12T00:03:49.865Z,11.97
2019-01-12T00:06:16.720Z,11.80
2019-01-12T00:08:43.877Z,13.30
2019-01-12T00:11:10.629Z,12.93
2019-01-12T00:13:37.419Z,12.03
2019-01-12T00:16:06.876Z,12.87
2019-01-12T00:18:33.767Z,13.87
2019-01-12T00:21:09.627Z,15.13
2019-01-12T00:23:36.429Z,14.90
2019-01-12T00:26:03.187Z,13.87
2019-01-12T00:28:29.921Z,15.63
2019-01-12T00:30:56.803Z,17.40
2019-01-12T00:33:23.553Z,17.00
2019-01-12T00:35:50.423Z,16.67
2019-01-12T00:38:17.280Z,14.63
2019-01-12T00:40:44.031Z,14.33
2019-01-12T00:43:10.942Z,15.90
2019-01-12T00:45:37.691Z,16.73
2019-01-12T00:48:04.580Z,13.53
2019-01-12T00:50:31.280Z,16.80
2019-01-12T00:52:58.031Z,15.73
2019-01-12T00:55:24.992Z,14.07
2019-01-12T00:57:52.067Z,18.80
2019-01-12T01:00:20.101Z,15.33
2019-01-12T01:02:47.072Z,14.30
2019-01-12T01:05:13.877Z,17.60
2019-01-12T01:07:40.627Z,14.63
2019-01-12T01:10:11.448Z,13.90
2019-01-12T01:12:38.206Z,13.33
2019-01-12T01:15:06.363Z,11.87
2019-01-12T01:17:33.115Z,15.43
2019-01-12T01:20:00.260Z,14.67
2019-01-12T01:22:28.515Z,10.17
2019-01-12T01:24:55.433Z,10.37
2019-01-12T01:27:24.121Z,10.40
2019-01-12T01:29:50.919Z,9.30
2019-01-12T01:32:17.638Z,12.60
2019-01-12T01:34:44.714Z,10.67
2019-01-12T01:37:11.556Z,8.20
2019-01-12T01:39:38.476Z,10.00
2019-01-12T01:42:05.367Z,10.10
2019-01-12T01:44:32.108Z,9.70
2019-01-12T01:46:58.851Z,8.73
2019-01-12T01:49:25.707Z,9.13
2019-01-12T01:51:52.436Z,9.60
2019-01-12T01:54:19.324Z,12.67
2019-01-12T01:56:46.134Z,9.70
2019-01-12T01:59:12.873Z,8.30
2019-01-12T02:01:39.614Z,9.30
2019-01-12T02:04:06.342Z,11.23
2019-01-12T02:06:33.149Z,8.70
2019-01-12T02:08:59.923Z,9.47
2019-01-12T02:11:26.909Z,10.40
2019-01-12T02:13:54.064Z,10.80
2019-01-12T02:16:20.874Z,10.23
2019-01-12T02:18:47.621Z,11.90
2019-01-12T02:21:14.347Z,10.73
2019-01-12T02:23:41.098Z,12.13
2019-01-12T02:26:07.905Z,9.00
2019-01-12T02:28:34.687Z,10.20
2019-01-12T02:31:01.463Z,8.83
2019-01-12T02:33:28.213Z,13.40
2019-01-12T02:35:55.663Z,15.60
2019-01-12T02:38:22.427Z,11.73
2019-01-12T02:40:49.303Z,14.30
2019-01-12T02:43:16.258Z,11.80
2019-01-12T02:45:43.095Z,11.10
2019-01-12T02:48:09.921Z,13.37
2019-01-12T02:50:36.909Z,11.87
2019-01-12T02:53:03.667Z,12.60
2019-01-12T02:55:30.617Z,12.50
2019-01-12T02:57:57.512Z,14.17
2019-01-12T03:00:24.790Z,12.17
2019-01-12T03:02:51.640Z,16.37
2019-01-12T03:05:20.777Z,13.20
2019-01-12T03:07:47.590Z,11.80
2019-01-12T03:10:15.806Z,12.30
2019-01-12T03:12:43.210Z,15.10
2019-01-12T03:15:12.315Z,13.30
2019-01-12T03:17:39.320Z,15.17
2019-01-12T03:20:08.452Z,13.00
2019-01-12T03:22:35.198Z,13.50
2019-01-12T03:25:02.559Z,17.03
2019-01-12T03:27:29.397Z,12.17
2019-01-12T03:29:56.199Z,13.00
2019-01-12T03:32:23.463Z,15.20
2019-01-12T03:34:50.284Z,12.57
2019-01-12T03:37:17.166Z,13.23
2019-01-12T03:39:43.894Z,16.93
2019-01-12T03:42:10.633Z,14.40
2019-01-12T03:44:37.402Z,12.73
2019-01-12T03:47:04.293Z,11.90
2019-01-12T03:49:31.013Z,10.07
2019-01-12T03:51:58.143Z,11.30
2019-01-12T03:54:24.960Z,11.97
2019-01-12T03:56:51.887Z,12.30
2019-01-12T03:59:18.590Z,10.90
2019-01-12T04:01:45.707Z,10.50
2019-01-12T04:04:12.447Z,11.80
2019-01-12T04:06:39.172Z,11.53
2019-01-12T04:09:07.789Z,11.13
2019-01-12T04:11:35.336Z,10.27
2019-01-12T04:14:02.596Z,9.93
2019-01-12T04:16:29.498Z,14.70
2019-01-12T04:18:56.281Z,12.70
2019-01-12T04:21:23.004Z,12.60
2019-01-12T04:23:49.853Z,13.70
2019-01-12T04:26:17.031Z,15.47
2019-01-12T04:28:43.806Z,14.93
2019-01-12T04:31:10.578Z,11.53
2019-01-12T04:33:37.306Z,13.50
2019-01-12T04:36:06.618Z,13.07
2019-01-12T04:38:33.555Z,11.80
2019-01-12T04:41:02.242Z,13.53
2019-01-12T04:43:28.976Z,14.77
2019-01-12T04:45:55.728Z,12.40
2019-01-12T04:48:22.499Z,12.67
2019-01-12T04:50:49.387Z,13.13
2019-01-12T04:53:16.117Z,12.90
2019-01-12T04:55:42.905Z,11.17
2019-01-12T04:58:10.132Z,17.83
2019-01-12T05:00:36.893Z,13.33
2019-01-12T05:03:03.927Z,10.87
2019-01-12T05:05:30.675Z,11.70
2019-01-12T05:07:57.410Z,12.47
2019-01-12T05:10:24.155Z,11.43
2019-01-12T05:12:53.650Z,10.67
2019-01-12T05:15:22.407Z,13.73
2019-01-12T05:17:49.204Z,10.07
2019-01-12T05:20:19.920Z,11.00
2019-01-12T05:22:46.674Z,10.63
2019-01-12T05:25:13.499Z,9.20
2019-01-12T05:27:40.363Z,12.50
2019-01-12T05:30:09.502Z,11.00
2019-01-12T05:32:36.500Z,9.33
2019-01-12T05:35:03.846Z,10.83
2019-01-12T05:37:30.569Z,12.20
2019-01-12T05:39:57.340Z,12.33
2019-01-12T05:42:24.089Z,10.27
2019-01-12T05:44:50.794Z,11.97
2019-01-12T05:47:17.561Z,9.57
2019-01-12T05:49:44.581Z,9.23
2019-01-12T05:52:11.310Z,11.17
2019-01-12T05:54:38.022Z,13.80
2019-01-12T05:57:04.766Z,12.67
2019-01-12T05:59:31.509Z,12.87
2019-01-12T06:01:58.505Z,11.23
2019-01-12T06:04:25.245Z,14.87
2019-01-12T06:06:52.428Z,16.53
2019-01-12T06:09:19.136Z,16.00
2019-01-12T06:11:47.976Z,18.57
2019-01-12T06:14:15.208Z,16.53
2019-01-12T06:16:42.258Z,17.23
2019-01-12T06:19:09.582Z,16.60
2019-01-12T06:21:36.321Z,15.73
2019-01-12T06:24:03.040Z,15.43
2019-01-12T06:26:29.879Z,14.97
2019-01-12T06:28:56.614Z,15.77
2019-01-12T06:31:23.483Z,17.90
2019-01-12T06:33:53.137Z,16.63
2019-01-12T06:36:19.982Z,16.53
2019-01-12T06:38:47.029Z,15.93
2019-01-12T06:41:13.832Z,17.33
2019-01-12T06:43:40.572Z,16.10
2019-01-12T06:46:07.430Z,23.27
2019-01-12T06:48:34.296Z,14.87
2019-01-12T06:51:01.448Z,18.90
2019-01-12T06:53:28.443Z,16.10
2019-01-12T06:55:55.402Z,14.53
2019-01-12T06:58:22.172Z,16.83
2019-01-12T07:00:49.161Z,17.40
2019-01-12T07:03:15.931Z,14.10
2019-01-12T07:05:42.756Z,15.03
2019-01-12T07:08:09.529Z,17.03
2019-01-12T07:10:36.272Z,14.77
2019-01-12T07:13:03.193Z,13.90
2019-01-12T07:15:29.934Z,14.23
2019-01-12T07:17:56.972Z,15.43
2019-01-12T07:20:23.790Z,14.47
2019-01-12T07:22:50.896Z,14.10
2019-01-12T07:25:17.750Z,14.83
2019-01-12T07:27:46.020Z,14.33
2019-01-12T07:30:16.105Z,12.73
2019-01-12T07:32:44.594Z,14.67
2019-01-12T07:35:12.074Z,13.60
2019-01-12T07:37:44.139Z,16.40
2019-01-12T07:40:10.874Z,13.07
2019-01-12T07:42:40.186Z,18.80
2019-01-12T07:45:08.496Z,13.73
2019-01-12T07:47:35.464Z,14.00
2019-01-12T07:50:02.378Z,11.47
2019-01-12T07:52:29.286Z,12.97
2019-01-12T07:54:56.438Z,13.00
2019-01-12T07:57:23.587Z,10.10
2019-01-12T07:59:50.460Z,10.43
2019-01-12T08:02:17.283Z,10.70
2019-01-12T08:04:44.039Z,11.77
2019-01-12T08:07:10.959Z,11.43
2019-01-12T08:09:37.826Z,13.87
2019-01-12T08:12:04.658Z,10.53
2019-01-12T08:14:31.409Z,11.90
2019-01-12T08:16:58.332Z,12.30
2019-01-12T08:19:25.304Z,8.40
2019-01-12T08:21:52.428Z,8.57
2019-01-12T08:24:20.900Z,8.10
2019-01-12T08:26:47.606Z,9.27
2019-01-12T08:29:14.776Z,9.50
2019-01-12T08:31:41.549Z,7.87
2019-01-12T08:34:11.352Z,7.33
2019-01-12T08:36:38.144Z,5.20
2019-01-12T08:39:06.080Z,6.90
2019-01-12T08:41:32.805Z,5.77
2019-01-12T08:43:59.711Z,5.17
2019-01-12T08:46:26.776Z,5.00
2019-01-12T08:48:53.713Z,6.10
2019-01-12T08:51:20.541Z,5.50
2019-01-12T08:53:47.773Z,5.07
2019-01-12T08:56:14.561Z,6.20
2019-01-12T08:58:41.365Z,4.97
2019-01-12T09:01:08.668Z,8.60
2019-01-12T09:03:36.113Z,7.23
2019-01-12T09:06:02.908Z,5.57
2019-01-12T09:08:30.005Z,5.40
2019-01-12T09:10:57.005Z,6.50
2019-01-12T09:13:23.870Z,9.50
2019-01-12T09:15:50.951Z,6.53
2019-01-12T09:18:17.722Z,11.97
2019-01-12T09:20:44.722Z,12.93
2019-01-12T09:23:13.798Z,10.97
2019-01-12T09:25:44.033Z,10.87
2019-01-12T09:28:10.818Z,9.30
2019-01-12T09:30:37.559Z,9.00
2019-01-12T09:33:05.776Z,7.93
2019-01-12T09:35:32.666Z,11.13
2019-01-12T09:37:59.986Z,7.73
2019-01-12T09:40:26.893Z,8.83
2019-01-12T09:42:54.042Z,10.97
2019-01-12T09:45:21.079Z,9.07
2019-01-12T09:47:48.086Z,12.80
2019-01-12T09:50:16.645Z,15.07
2019-01-12T09:52:43.975Z,13.40
2019-01-12T09:55:10.759Z,15.63
2019-01-12T09:57:37.672Z,16.43
2019-01-12T10:00:09.279Z,14.90
2019-01-12T10:02:36.219Z,13.90
2019-01-12T10:05:03.533Z,15.03
2019-01-12T10:07:32.448Z,18.00
2019-01-12T10:09:59.305Z,12.40
2019-01-12T10:12:26.122Z,10.57
2019-01-12T10:14:53.278Z,10.03
2019-01-12T10:17:20.526Z,11.50
2019-01-12T10:19:50.441Z,13.23
2019-01-12T10:22:17.992Z,16.63
2019-01-12T10:24:46.131Z,18.50
2019-01-12T10:27:13.217Z,15.20
2019-01-12T10:29:42.073Z,12.47
2019-01-12T10:32:10.915Z,16.03
2019-01-12T10:34:37.923Z,13.40
2019-01-12T10:37:06.320Z,11.27
2019-01-12T10:39:33.246Z,11.63
2019-01-12T10:42:00.202Z,12.40
2019-01-12T10:44:27.136Z,14.33
2019-01-12T10:46:54.392Z,13.77
2019-01-12T10:49:21.297Z,16.70
2019-01-12T10:51:48.402Z,12.23
2019-01-12T10:54:15.527Z,15.90
2019-01-12T10:56:48.738Z,13.50
2019-01-12T10:59:15.684Z,17.07
2019-01-12T11:01:44.870Z,13.80
2019-01-12T11:04:11.979Z,15.27
2019-01-12T11:06:39.575Z,15.37
2019-01-12T11:09:07.249Z,21.83
2019-01-12T11:11:34.292Z,15.27
2019-01-12T11:14:01.067Z,12.50
2019-01-12T11:16:28.179Z,14.07
2019-01-12T11:18:58.909Z,12.80
2019-01-12T11:21:26.152Z,16.20
2019-01-12T11:23:53.021Z,13.00
2019-01-12T11:26:19.890Z,13.93
2019-01-12T11:28:46.988Z,14.03
2019-01-12T11:31:19.795Z,12.40
2019-01-12T11:33:42.544Z,12.10
2019-01-12T11:36:09.303Z,12.33
2019-01-12T11:38:36.623Z,10.13
2019-01-12T11:41:05.624Z,8.73
2019-01-12T11:43:34.801Z,11.00
2019-01-12T11:46:01.782Z,10.17
2019-01-12T11:48:28.759Z,10.60
2019-01-12T11:51:04.294Z,9.90
2019-01-12T11:53:31.187Z,10.53
2019-01-12T11:55:58.279Z,13.47
2019-01-12T11:58:25.189Z,12.90
2019-01-12T12:00:52.032Z,11.40
2019-01-12T12:03:19.372Z,12.60
2019-01-12T12:05:46.347Z,13.97
2019-01-12T12:08:13.135Z,13.13
2019-01-12T12:10:40.215Z,12.80
2019-01-12T12:13:09.627Z,12.70
2019-01-12T12:15:36.539Z,13.97
2019-01-12T12:18:03.350Z,10.73
2019-01-12T12:20:32.980Z,13.40
2019-01-12T12:22:59.784Z,13.27
2019-01-12T12:25:26.609Z,12.63
2019-01-12T12:27:53.582Z,10.80
2019-01-12T12:30:27.676Z,8.80
2019-01-12T12:32:59.311Z,8.20
2019-01-12T12:35:26.648Z,8.53
2019-01-12T12:37:53.642Z,9.30
2019-01-12T12:40:20.523Z,9.60
2019-01-12T12:42:47.267Z,9.20
2019-01-12T12:45:16.853Z,7.27
2019-01-12T12:47:43.710Z,8.30
2019-01-12T12:50:11.547Z,8.40
2019-01-12T12:52:38.345Z,8.00
2019-01-12T12:55:05.937Z,10.53
2019-01-12T12:57:33.206Z,6.40
2019-01-12T13:00:00.253Z,9.80
2019-01-12T13:02:27.697Z,6.80
2019-01-12T13:04:54.964Z,10.20
2019-01-12T13:07:21.905Z,12.40
2019-01-12T13:09:48.738Z,9.33
2019-01-12T13:12:15.752Z,11.37
2019-01-12T13:14:42.653Z,15.17
2019-01-12T13:17:09.455Z,9.80
2019-01-12T13:19:38.156Z,9.73
2019-01-12T13:22:05.058Z,10.70
2019-01-12T13:24:31.854Z,10.17
2019-01-12T13:26:58.829Z,10.37
2019-01-12T13:29:25.561Z,10.97
2019-01-12T13:31:55.409Z,12.53
2019-01-12T13:34:22.621Z,9.80
2019-01-12T13:36:49.715Z,17.83
2019-01-12T13:39:16.520Z,13.77
2019-01-12T13:41:43.290Z,12.60
2019-01-12T13:44:10.034Z,11.00
2019-01-12T13:46:37.167Z,13.80
2019-01-12T13:49:04.691Z,13.90
2019-01-12T13:51:31.617Z,11.90
2019-01-12T13:53:58.868Z,13.67
2019-01-12T13:56:25.651Z,8.90
2019-01-12T13:58:52.448Z,13.73
2019-01-12T14:01:19.862Z,15.63
2019-01-12T14:03:46.759Z,10.13
2019-01-12T14:06:13.519Z,10.33
2019-01-12T14:08:40.398Z,9.60
2019-01-12T14:11:10.206Z,12.77
2019-01-12T14:13:37.175Z,12.80
2019-01-12T14:16:04.924Z,11.60
2019-01-12T14:18:33.600Z,10.57
2019-01-12T14:21:02.140Z,10.83
2019-01-12T14:23:29.028Z,11.03
2019-01-12T14:25:55.831Z,15.40
2019-01-12T14:28:22.683Z,9.10
2019-01-12T14:30:50.228Z,13.60
2019-01-12T14:33:16.981Z,15.13
2019-01-12T14:35:43.721Z,7.47
2019-01-12T14:38:10.645Z,10.63
2019-01-12T14:40:39.877Z,10.17
2019-01-12T14:43:06.747Z,11.40
2019-01-12T14:45:33.487Z,12.43
2019-01-12T14:48:00.395Z,10.87
2019-01-12T14:50:27.273Z,10.33
2019-01-12T14:52:54.852Z,12.00
2019-01-12T14:55:22.062Z,9.37
2019-01-12T14:57:48.947Z,9.73
2019-01-12T15:00:17.834Z,10.17
2019-01-12T15:02:46.101Z,6.50
2019-01-12T15:05:15.750Z,9.33
2019-01-12T15:07:42.920Z,12.10
2019-01-12T15:10:11.335Z,7.90
2019-01-12T15:12:38.096Z,6.73
2019-01-12T15:15:05.465Z,8.23
2019-01-12T15:17:32.231Z,8.80
2019-01-12T15:19:59.162Z,5.60
2019-01-12T15:22:25.920Z,5.30
2019-01-12T15:24:55.275Z,7.07
2019-01-12T15:27:22.180Z,8.50
2019-01-12T15:29:49.078Z,6.73
2019-01-12T15:32:16.301Z,8.10
2019-01-12T15:34:43.129Z,6.60
2019-01-12T15:37:09.887Z,6.40
2019-01-12T15:39:36.942Z,8.90
2019-01-12T15:42:03.754Z,7.43
2019-01-12T15:44:30.524Z,8.83
2019-01-12T15:46:57.452Z,8.00
2019-01-12T15:49:24.212Z,10.37
2019-01-12T15:51:50.996Z,9.70
2019-01-12T15:54:18.046Z,10.20
2019-01-12T15:56:44.770Z,12.60
2019-01-12T15:59:11.524Z,9.23
2019-01-12T16:01:38.252Z,8.53
2019-01-12T16:04:05.033Z,8.27
2019-01-12T16:06:31.771Z,11.10
2019-01-12T16:08:58.573Z,7.53
2019-01-12T16:11:25.380Z,5.90
2019-01-12T16:13:52.167Z,5.87
2019-01-12T16:16:19.032Z,6.90
2019-01-12T16:18:46.565Z,9.33
2019-01-12T16:21:13.528Z,4.83
2019-01-12T16:23:40.616Z,5.30
2019-01-12T16:26:07.656Z,6.10
2019-01-12T16:28:34.877Z,5.73
2019-01-12T16:31:02.462Z,3.97
2019-01-12T16:33:29.243Z,4.30
2019-01-12T16:35:56.261Z,4.10
2019-01-12T16:38:23.146Z,5.10
2019-01-12T16:40:49.991Z,5.20
2019-01-12T16:43:16.844Z,5.00
2019-01-12T16:45:46.389Z,4.97
2019-01-12T16:48:13.417Z,4.80
2019-01-12T16:50:40.278Z,4.53
2019-01-12T16:53:07.418Z,4.20
2019-01-12T16:55:34.299Z,4.03
2019-01-12T16:58:02.881Z,5.57
2019-01-12T17:00:30.311Z,5.10
2019-01-12T17:02:58.324Z,3.83
2019-01-12T17:05:25.777Z,4.93
2019-01-12T17:07:52.739Z,8.60
2019-01-12T17:10:20.078Z,5.00
2019-01-12T17:12:47.075Z,4.60
2019-01-12T17:15:15.824Z,3.87
2019-01-12T17:17:43.176Z,5.50
2019-01-12T17:20:13.657Z,4.80
2019-01-12T17:22:41.593Z,5.10
2019-01-12T17:25:08.402Z,4.30
2019-01-12T17:27:35.780Z,3.50
2019-01-12T17:30:03.988Z,3.73
2019-01-12T17:32:30.967Z,4.90
2019-01-12T17:34:57.782Z,5.30
2019-01-12T17:37:24.570Z,3.10
2019-01-12T17:39:51.689Z,4.37
2019-01-12T17:42:18.976Z,3.77
2019-01-12T17:44:45.994Z,3.77
2019-01-12T17:47:14.455Z,3.23
2019-01-12T17:49:41.289Z,3.70
2019-01-12T17:52:08.388Z,3.93
2019-01-12T17:54:35.317Z,3.37
2019-01-12T17:57:02.195Z,3.63
2019-01-12T17:59:29.188Z,3.43
2019-01-12T18:01:55.927Z,4.33
2019-01-12T18:04:22.818Z,3.23
2019-01-12T18:06:49.879Z,5.27
2019-01-12T18:09:16.664Z,3.43
2019-01-12T18:11:43.418Z,3.60
2019-01-12T18:14:11.128Z,3.43
2019-01-12T18:16:37.906Z,3.40
2019-01-12T18:19:06.874Z,3.00
2019-01-12T18:21:33.654Z,3.37
2019-01-12T18:24:00.582Z,2.30
2019-01-12T18:26:27.466Z,2.50
2019-01-12T18:28:56.950Z,2.63
2019-01-12T18:31:23.726Z,2.90
2019-01-12T18:33:50.722Z,3.20
2019-01-12T18:36:17.946Z,3.10
2019-01-12T18:38:45.085Z,2.87
2019-01-12T18:41:12.426Z,2.53
2019-01-12T18:43:40.481Z,2.93
2019-01-12T18:46:12.124Z,2.30
2019-01-12T18:48:36.188Z,3.20
2019-01-12T18:51:03.075Z,2.57
2019-01-12T18:53:30.080Z,3.60
2019-01-12T18:55:56.885Z,2.90
2019-01-12T18:58:23.960Z,3.13
2019-01-12T19:00:51.077Z,3.27
2019-01-12T19:03:17.854Z,3.10
2019-01-12T19:05:47.182Z,3.07
2019-01-12T19:08:13.926Z,5.20
2019-01-12T19:10:40.892Z,3.40
2019-01-12T19:13:07.906Z,2.93
2019-01-12T19:15:34.744Z,2.67
2019-01-12T19:18:01.881Z,2.60
2019-01-12T19:20:28.768Z,2.60
2019-01-12T19:22:55.646Z,3.90
2019-01-12T19:25:22.655Z,2.80
2019-01-12T19:27:49.471Z,2.80
2019-01-12T19:30:20.124Z,3.70
2019-01-12T19:32:49.509Z,2.50
2019-01-12T19:35:16.301Z,2.20
2019-01-12T19:37:43.170Z,3.67
2019-01-12T19:40:12.600Z,2.60
2019-01-12T19:42:39.438Z,3.13
2019-01-12T19:45:07.783Z,3.30
2019-01-12T19:47:34.680Z,2.73
2019-01-12T19:50:04.422Z,2.30
2019-01-12T19:52:31.242Z,2.80
2019-01-12T19:54:58.114Z,2.40
2019-01-12T19:57:24.940Z,1.93
2019-01-12T19:59:51.762Z,2.20
2019-01-12T20:02:18.716Z,1.90
2019-01-12T20:04:45.480Z,2.27
2019-01-12T20:07:13.869Z,2.20
2019-01-12T20:09:40.915Z,2.60
2019-01-12T20:12:07.784Z,2.60
2019-01-12T20:14:34.792Z,2.80
2019-01-12T20:17:01.891Z,3.00
2019-01-12T20:19:28.869Z,2.90
2019-01-12T20:21:56.444Z,2.50
2019-01-12T20:24:23.656Z,2.57
2019-01-12T20:26:55.068Z,2.53
2019-01-12T20:29:22.012Z,2.33
2019-01-12T20:32:18.399Z,2.10
2019-01-12T20:35:05.601Z,2.30
2019-01-12T20:38:04.512Z,2.30
2019-01-12T20:41:15.893Z,2.03
2019-01-12T20:44:39.733Z,2.17
2019-01-12T20:47:51.677Z,2.20
2019-01-12T20:50:27.122Z,2.20
2019-01-12T20:53:45.154Z,2.20
2019-01-12T20:56:47.842Z,2.40
2019-01-12T20:59:49.485Z,2.50
2019-01-12T21:03:09.321Z,1.43
2019-01-12T21:06:36.590Z,1.47
2019-01-12T21:09:43.414Z,1.87
2019-01-12T21:12:41.208Z,1.87
2019-01-12T21:15:21.101Z,1.83
2019-01-12T21:17:48.253Z,1.90
2019-01-12T21:20:15.222Z,1.90
2019-01-12T21:22:42.014Z,1.60
2019-01-12T21:25:08.981Z,2.00
2019-01-12T21:27:38.204Z,1.43
2019-01-12T21:30:10.529Z,2.30
2019-01-12T21:32:41.027Z,2.00
2019-01-12T21:35:12.593Z,2.50
2019-01-12T21:37:46.888Z,1.93
2019-01-12T21:40:13.654Z,2.23
2019-01-12T21:42:42.780Z,2.50
2019-01-12T21:45:11.283Z,2.33
2019-01-12T21:47:44.336Z,2.30
2019-01-12T21:50:12.422Z,4.20
2019-01-12T21:52:39.175Z,2.47
2019-01-12T21:55:09.431Z,2.73
2019-01-12T21:57:43.395Z,3.57
2019-01-12T22:00:13.208Z,2.90
2019-01-12T22:02:42.937Z,2.90
2019-01-12T22:05:09.753Z,3.03
2019-01-12T22:07:38.398Z,4.20
2019-01-12T22:10:08.935Z,3.70
2019-01-12T22:12:35.712Z,4.27
2019-01-12T22:15:04.941Z,3.40
2019-01-12T22:17:31.890Z,3.40
2019-01-12T22:19:59.213Z,4.17
2019-01-12T22:22:26.384Z,3.60
2019-01-12T22:24:53.405Z,3.30
2019-01-12T22:27:20.159Z,3.33
2019-01-12T22:29:50.055Z,3.33
2019-01-12T22:32:16.022Z,2.20
2019-01-12T22:34:42.765Z,2.10
2019-01-12T22:37:09.677Z,2.50
2019-01-12T22:39:36.515Z,3.30
2019-01-12T22:42:03.297Z,2.90
2019-01-12T22:44:30.489Z,2.87
2019-01-12T22:46:57.228Z,2.10
2019-01-12T22:49:25.930Z,2.47
2019-01-12T22:51:52.793Z,3.30
2019-01-12T22:54:22.299Z,2.97
2019-01-12T22:56:49.101Z,3.10
2019-01-12T22:59:16.166Z,2.90
2019-01-12T23:01:50.701Z,3.20
2019-01-12T23:04:22.564Z,3.30
2019-01-12T23:06:49.480Z,3.43
2019-01-12T23:09:16.337Z,4.30
2019-01-12T23:11:43.146Z,4.53
2019-01-12T23:14:10.019Z,3.90
2019-01-12T23:16:36.764Z,3.80
2019-01-12T23:19:03.627Z,3.70
2019-01-12T23:21:31.633Z,4.20
2019-01-12T23:23:58.648Z,3.93
2019-01-12T23:26:27.320Z,4.30
2019-01-12T23:28:54.189Z,3.03
2019-01-12T23:31:24.978Z,3.83
2019-01-12T23:36:31.993Z,4.70
2019-01-12T23:38:58.876Z,3.90
2019-01-12T23:41:28.761Z,4.23
2019-01-12T23:43:56.120Z,3.97
2019-01-12T23:46:23.124Z,4.13
2019-01-12T23:48:49.940Z,4.00
2019-01-12T23:51:20.784Z,3.60
2019-01-12T23:53:48.763Z,4.53
2019-01-12T23:56:15.658Z,3.83
2019-01-12T23:58:42.478Z,3.23
